sensor_id;sensor_type;location;lat;lon;timestamp;P1;durP1;ratioP1;P2;durP2;ratioP2
9524;SDS011;15940;48.734;9.112;2023-02-08T00:01:20;12.17;;;8.17;;
9524;SDS011;15940;48.734;9.112;2023-02-08T00:03:51;11.47;;;8.10;;
9524;SDS011;15940;48.734;9.112;2023-02-08T00:06:18;13.27;;;8.10;;
9524;SDS011;15940;48.734;9.112;2023-02-08T00:08:47;13.07;;;7.77;;
9524;SDS011;15940;48.734;9.112;2023-02-08T00:11:14;11.43;;;7.53;;
9524;SDS011;15940;48.734;9.112;2023-02-08T00:13:42;11.27;;;7.87;;
9524;SDS011;15940;48.734;9.112;2023-02-08T00:16:11;10.43;;;7.57;;
9524;SDS011;15940;48.734;9.112;2023-02-08T00:18:39;12.43;;;8.67;;
9524;SDS011;15940;48.734;9.112;2023-02-08T00:21:07;14.27;;;8.37;;
9524;SDS011;15940;48.734;9.112;2023-02-08T00:23:36;10.93;;;7.33;;
9524;SDS011;15940;48.734;9.112;2023-02-08T00:26:05;12.70;;;8.10;;
9524;SDS011;15940;48.734;9.112;2023-02-08T00:28:33;15.47;;;8.20;;
9524;SDS011;15940;48.734;9.112;2023-02-08T00:31:00;11.63;;;8.03;;
9524;SDS011;15940;48.734;9.112;2023-02-08T00:33:27;13.70;;;7.80;;
9524;SDS011;15940;48.734;9.112;2023-02-08T00:35:57;13.33;;;7.70;;
9524;SDS011;15940;48.734;9.112;2023-02-08T00:38:24;11.57;;;7.17;;
9524;SDS011;15940;48.734;9.112;2023-02-08T00:40:53;10.10;;;7.27;;
9524;SDS011;15940;48.734;9.112;2023-02-08T00:43:22;10.97;;;7.20;;
9524;SDS011;15940;48.734;9.112;2023-02-08T00:46:03;9.47;;;7.10;;
9524;SDS011;15940;48.734;9.112;2023-02-08T00:48:33;9.67;;;7.57;;
9524;SDS011;15940;48.734;9.112;2023-02-08T00:51:04;11.40;;;7.60;;
9524;SDS011;15940;48.734;9.112;2023-02-08T00:53:34;11.13;;;8.10;;
9524;SDS011;15940;48.734;9.112;2023-02-08T00:56:02;13.23;;;8.10;;
9524;SDS011;15940;48.734;9.112;2023-02-08T00:58:31;12.67;;;7.47;;
9524;SDS011;15940;48.734;9.112;2023-02-08T01:01:00;12.63;;;8.23;;
9524;SDS011;15940;48.734;9.112;2023-02-08T01:03:29;14.33;;;8.40;;
9524;SDS011;15940;48.734;9.112;2023-02-08T01:05:59;10.37;;;7.60;;
9524;SDS011;15940;48.734;9.112;2023-02-08T01:08:27;10.80;;;7.73;;
9524;SDS011;15940;48.734;9.112;2023-02-08T01:11:00;12.23;;;8.17;;
9524;SDS011;15940;48.734;9.112;2023-02-08T01:13:31;11.10;;;7.57;;
9524;SDS011;15940;48.734;9.112;2023-02-08T01:16:09;10.97;;;7.90;;
9524;SDS011;15940;48.734;9.112;2023-02-08T01:18:38;11.63;;;8.10;;
9524;SDS011;15940;48.734;9.112;2023-02-08T01:21:08;13.90;;;8.10;;
9524;SDS011;15940;48.734;9.112;2023-02-08T01:23:39;13.03;;;8.20;;
9524;SDS011;15940;48.734;9.112;2023-02-08T01:26:06;13.47;;;8.67;;
9524;SDS011;15940;48.734;9.112;2023-02-08T01:28:36;12.07;;;8.20;;
9524;SDS011;15940;48.734;9.112;2023-02-08T01:31:06;14.63;;;8.57;;
9524;SDS011;15940;48.734;9.112;2023-02-08T01:33:37;12.40;;;8.13;;
9524;SDS011;15940;48.734;9.112;2023-02-08T01:36:05;12.93;;;8.20;;
9524;SDS011;15940;48.734;9.112;2023-02-08T01:38:34;11.77;;;8.50;;
9524;SDS011;15940;48.734;9.112;2023-02-08T01:41:03;12.50;;;8.50;;
9524;SDS011;15940;48.734;9.112;2023-02-08T01:43:32;12.50;;;8.33;;
9524;SDS011;15940;48.734;9.112;2023-02-08T01:46:21;12.23;;;8.37;;
9524;SDS011;15940;48.734;9.112;2023-02-08T01:48:48;13.33;;;8.23;;
9524;SDS011;15940;48.734;9.112;2023-02-08T01:51:17;13.43;;;7.73;;
9524;SDS011;15940;48.734;9.112;2023-02-08T01:53:46;13.17;;;8.17;;
9524;SDS011;15940;48.734;9.112;2023-02-08T01:56:17;11.57;;;7.40;;
9524;SDS011;15940;48.734;9.112;2023-02-08T01:58:53;11.20;;;7.90;;
9524;SDS011;15940;48.734;9.112;2023-02-08T02:01:29;13.90;;;8.27;;
9524;SDS011;15940;48.734;9.112;2023-02-08T02:04:00;15.27;;;8.33;;
9524;SDS011;15940;48.734;9.112;2023-02-08T02:06:33;10.40;;;7.47;;
9524;SDS011;15940;48.734;9.112;2023-02-08T02:09:09;14.60;;;8.23;;
9524;SDS011;15940;48.734;9.112;2023-02-08T02:11:42;11.07;;;7.93;;
9524;SDS011;15940;48.734;9.112;2023-02-08T02:14:16;11.10;;;7.63;;
9524;SDS011;15940;48.734;9.112;2023-02-08T02:16:45;11.90;;;7.90;;
9524;SDS011;15940;48.734;9.112;2023-02-08T02:19:14;11.13;;;7.67;;
9524;SDS011;15940;48.734;9.112;2023-02-08T02:21:56;10.67;;;7.90;;
9524;SDS011;15940;48.734;9.112;2023-02-08T02:28:27;12.80;;;7.67;;
9524;SDS011;15940;48.734;9.112;2023-02-08T02:31:48;12.70;;;8.17;;
9524;SDS011;15940;48.734;9.112;2023-02-08T02:35:02;13.93;;;8.07;;
9524;SDS011;15940;48.734;9.112;2023-02-08T02:37:40;11.80;;;7.70;;
9524;SDS011;15940;48.734;9.112;2023-02-08T02:40:23;10.63;;;7.30;;
9524;SDS011;15940;48.734;9.112;2023-02-08T02:43:10;11.47;;;7.13;;
9524;SDS011;15940;48.734;9.112;2023-02-08T02:46:03;12.13;;;8.30;;
9524;SDS011;15940;48.734;9.112;2023-02-08T02:48:41;10.63;;;7.77;;
9524;SDS011;15940;48.734;9.112;2023-02-08T02:51:17;9.80;;;7.40;;
9524;SDS011;15940;48.734;9.112;2023-02-08T02:53:53;10.07;;;7.80;;
9524;SDS011;15940;48.734;9.112;2023-02-08T02:56:28;13.93;;;8.27;;
9524;SDS011;15940;48.734;9.112;2023-02-08T02:59:02;11.40;;;7.47;;
9524;SDS011;15940;48.734;9.112;2023-02-08T03:01:34;11.00;;;7.60;;
9524;SDS011;15940;48.734;9.112;2023-02-08T03:04:12;12.07;;;8.03;;
9524;SDS011;15940;48.734;9.112;2023-02-08T03:09:37;11.13;;;7.93;;
9524;SDS011;15940;48.734;9.112;2023-02-08T03:12:28;9.43;;;7.20;;
9524;SDS011;15940;48.734;9.112;2023-02-08T03:15:05;10.07;;;6.87;;
9524;SDS011;15940;48.734;9.112;2023-02-08T03:17:52;11.83;;;7.57;;
9524;SDS011;15940;48.734;9.112;2023-02-08T03:20:32;13.00;;;7.37;;
9524;SDS011;15940;48.734;9.112;2023-02-08T03:23:07;11.63;;;7.77;;
9524;SDS011;15940;48.734;9.112;2023-02-08T03:25:42;12.80;;;7.57;;
9524;SDS011;15940;48.734;9.112;2023-02-08T03:28:19;10.80;;;7.43;;
9524;SDS011;15940;48.734;9.112;2023-02-08T03:30:53;10.90;;;7.13;;
9524;SDS011;15940;48.734;9.112;2023-02-08T03:33:30;11.13;;;7.70;;
9524;SDS011;15940;48.734;9.112;2023-02-08T03:36:07;10.30;;;7.47;;
9524;SDS011;15940;48.734;9.112;2023-02-08T03:38:42;12.07;;;7.67;;
9524;SDS011;15940;48.734;9.112;2023-02-08T03:41:15;10.30;;;7.37;;
9524;SDS011;15940;48.734;9.112;2023-02-08T03:43:49;15.27;;;8.30;;
9524;SDS011;15940;48.734;9.112;2023-02-08T03:46:24;11.00;;;7.33;;
9524;SDS011;15940;48.734;9.112;2023-02-08T03:48:56;13.03;;;8.00;;
9524;SDS011;15940;48.734;9.112;2023-02-08T03:51:29;11.73;;;8.00;;
9524;SDS011;15940;48.734;9.112;2023-02-08T03:53:59;13.50;;;8.40;;
9524;SDS011;15940;48.734;9.112;2023-02-08T03:56:34;13.63;;;7.97;;
9524;SDS011;15940;48.734;9.112;2023-02-08T03:59:10;11.67;;;7.40;;
9524;SDS011;15940;48.734;9.112;2023-02-08T04:01:43;12.33;;;7.77;;
9524;SDS011;15940;48.734;9.112;2023-02-08T04:04:16;11.10;;;7.70;;
9524;SDS011;15940;48.734;9.112;2023-02-08T04:06:50;12.10;;;7.97;;
9524;SDS011;15940;48.734;9.112;2023-02-08T04:09:17;12.90;;;8.47;;
9524;SDS011;15940;48.734;9.112;2023-02-08T04:11:44;12.93;;;8.37;;
9524;SDS011;15940;48.734;9.112;2023-02-08T04:14:11;12.37;;;8.17;;
9524;SDS011;15940;48.734;9.112;2023-02-08T04:16:40;12.43;;;7.40;;
9524;SDS011;15940;48.734;9.112;2023-02-08T04:19:09;10.83;;;7.47;;
9524;SDS011;15940;48.734;9.112;2023-02-08T04:21:36;12.40;;;7.53;;
9524;SDS011;15940;48.734;9.112;2023-02-08T04:24:04;11.93;;;7.63;;
9524;SDS011;15940;48.734;9.112;2023-02-08T04:26:33;12.87;;;8.27;;
9524;SDS011;15940;48.734;9.112;2023-02-08T04:29:00;9.77;;;7.53;;
9524;SDS011;15940;48.734;9.112;2023-02-08T04:31:27;12.93;;;8.33;;
9524;SDS011;15940;48.734;9.112;2023-02-08T04:33:53;10.93;;;7.53;;
9524;SDS011;15940;48.734;9.112;2023-02-08T04:36:20;10.97;;;7.43;;
9524;SDS011;15940;48.734;9.112;2023-02-08T04:38:47;12.77;;;8.40;;
9524;SDS011;15940;48.734;9.112;2023-02-08T04:41:16;13.33;;;8.20;;
9524;SDS011;15940;48.734;9.112;2023-02-08T04:43:43;10.90;;;7.50;;
9524;SDS011;15940;48.734;9.112;2023-02-08T04:46:10;14.03;;;8.80;;
9524;SDS011;15940;48.734;9.112;2023-02-08T04:48:39;13.77;;;8.10;;
9524;SDS011;15940;48.734;9.112;2023-02-08T04:51:08;12.83;;;8.47;;
9524;SDS011;15940;48.734;9.112;2023-02-08T04:53:35;11.03;;;7.70;;
9524;SDS011;15940;48.734;9.112;2023-02-08T04:56:02;12.27;;;7.80;;
9524;SDS011;15940;48.734;9.112;2023-02-08T04:58:30;10.53;;;7.60;;
9524;SDS011;15940;48.734;9.112;2023-02-08T05:00:57;11.80;;;7.90;;
9524;SDS011;15940;48.734;9.112;2023-02-08T05:03:28;14.13;;;7.90;;
9524;SDS011;15940;48.734;9.112;2023-02-08T05:05:55;13.27;;;8.13;;
9524;SDS011;15940;48.734;9.112;2023-02-08T05:08:30;11.50;;;7.77;;
9524;SDS011;15940;48.734;9.112;2023-02-08T05:10:57;12.63;;;8.27;;
9524;SDS011;15940;48.734;9.112;2023-02-08T05:13:25;11.03;;;8.20;;
9524;SDS011;15940;48.734;9.112;2023-02-08T05:15:55;15.50;;;7.83;;
9524;SDS011;15940;48.734;9.112;2023-02-08T05:18:22;12.33;;;8.00;;
9524;SDS011;15940;48.734;9.112;2023-02-08T05:20:53;12.93;;;8.07;;
9524;SDS011;15940;48.734;9.112;2023-02-08T05:23:21;11.97;;;7.50;;
9524;SDS011;15940;48.734;9.112;2023-02-08T05:25:49;13.23;;;8.07;;
9524;SDS011;15940;48.734;9.112;2023-02-08T05:28:16;12.80;;;7.90;;
9524;SDS011;15940;48.734;9.112;2023-02-08T05:30:44;11.43;;;7.17;;
9524;SDS011;15940;48.734;9.112;2023-02-08T05:33:12;11.57;;;7.40;;
9524;SDS011;15940;48.734;9.112;2023-02-08T05:35:39;12.43;;;8.20;;
9524;SDS011;15940;48.734;9.112;2023-02-08T05:38:07;13.17;;;8.13;;
9524;SDS011;15940;48.734;9.112;2023-02-08T05:40:36;13.27;;;8.10;;
9524;SDS011;15940;48.734;9.112;2023-02-08T05:43:06;12.00;;;8.53;;
9524;SDS011;15940;48.734;9.112;2023-02-08T05:45:33;13.57;;;8.57;;
9524;SDS011;15940;48.734;9.112;2023-02-08T05:47:59;13.80;;;7.77;;
9524;SDS011;15940;48.734;9.112;2023-02-08T05:50:38;13.10;;;8.13;;
9524;SDS011;15940;48.734;9.112;2023-02-08T05:53:05;11.73;;;8.10;;
9524;SDS011;15940;48.734;9.112;2023-02-08T05:55:32;10.83;;;7.87;;
9524;SDS011;15940;48.734;9.112;2023-02-08T05:57:59;12.47;;;8.67;;
9524;SDS011;15940;48.734;9.112;2023-02-08T06:00:29;12.97;;;8.43;;
9524;SDS011;15940;48.734;9.112;2023-02-08T06:02:56;14.83;;;8.70;;
9524;SDS011;15940;48.734;9.112;2023-02-08T06:05:27;14.00;;;8.10;;
9524;SDS011;15940;48.734;9.112;2023-02-08T06:08:03;12.80;;;8.43;;
9524;SDS011;15940;48.734;9.112;2023-02-08T06:10:30;14.60;;;8.27;;
9524;SDS011;15940;48.734;9.112;2023-02-08T06:12:57;14.27;;;8.47;;
9524;SDS011;15940;48.734;9.112;2023-02-08T06:15:26;13.13;;;8.53;;
9524;SDS011;15940;48.734;9.112;2023-02-08T06:17:54;11.83;;;8.60;;
9524;SDS011;15940;48.734;9.112;2023-02-08T06:20:21;12.83;;;8.57;;
9524;SDS011;15940;48.734;9.112;2023-02-08T06:22:49;13.50;;;8.93;;
9524;SDS011;15940;48.734;9.112;2023-02-08T06:25:17;13.70;;;8.60;;
9524;SDS011;15940;48.734;9.112;2023-02-08T06:27:44;11.93;;;8.30;;
9524;SDS011;15940;48.734;9.112;2023-02-08T06:30:12;13.43;;;8.03;;
9524;SDS011;15940;48.734;9.112;2023-02-08T06:32:40;13.37;;;8.73;;
9524;SDS011;15940;48.734;9.112;2023-02-08T06:35:09;16.33;;;8.30;;
9524;SDS011;15940;48.734;9.112;2023-02-08T06:37:36;12.57;;;8.50;;
9524;SDS011;15940;48.734;9.112;2023-02-08T06:40:04;14.33;;;8.83;;
9524;SDS011;15940;48.734;9.112;2023-02-08T06:42:33;14.67;;;9.10;;
9524;SDS011;15940;48.734;9.112;2023-02-08T06:45:03;14.93;;;8.70;;
9524;SDS011;15940;48.734;9.112;2023-02-08T06:47:33;17.87;;;9.43;;
9524;SDS011;15940;48.734;9.112;2023-02-08T06:50:00;12.80;;;8.77;;
9524;SDS011;15940;48.734;9.112;2023-02-08T06:52:27;13.03;;;8.10;;
9524;SDS011;15940;48.734;9.112;2023-02-08T06:54:54;13.03;;;8.43;;
9524;SDS011;15940;48.734;9.112;2023-02-08T06:57:23;14.30;;;8.47;;
9524;SDS011;15940;48.734;9.112;2023-02-08T06:59:51;15.20;;;8.60;;
9524;SDS011;15940;48.734;9.112;2023-02-08T07:02:20;11.83;;;8.10;;
9524;SDS011;15940;48.734;9.112;2023-02-08T07:04:47;18.00;;;9.33;;
9524;SDS011;15940;48.734;9.112;2023-02-08T07:07:15;16.03;;;8.43;;
9524;SDS011;15940;48.734;9.112;2023-02-08T07:09:43;18.83;;;8.93;;
9524;SDS011;15940;48.734;9.112;2023-02-08T07:12:10;16.83;;;9.13;;
9524;SDS011;15940;48.734;9.112;2023-02-08T07:14:40;12.90;;;8.63;;
9524;SDS011;15940;48.734;9.112;2023-02-08T07:17:10;13.73;;;8.80;;
9524;SDS011;15940;48.734;9.112;2023-02-08T07:19:38;14.33;;;9.33;;
9524;SDS011;15940;48.734;9.112;2023-02-08T07:22:06;12.97;;;8.53;;
9524;SDS011;15940;48.734;9.112;2023-02-08T07:24:34;14.87;;;9.73;;
9524;SDS011;15940;48.734;9.112;2023-02-08T07:27:02;13.97;;;8.90;;
9524;SDS011;15940;48.734;9.112;2023-02-08T07:29:32;14.70;;;9.03;;
9524;SDS011;15940;48.734;9.112;2023-02-08T07:32:01;13.60;;;8.17;;
9524;SDS011;15940;48.734;9.112;2023-02-08T07:34:32;18.33;;;9.30;;
9524;SDS011;15940;48.734;9.112;2023-02-08T07:37:05;16.57;;;9.93;;
9524;SDS011;15940;48.734;9.112;2023-02-08T07:39:39;13.87;;;9.47;;
9524;SDS011;15940;48.734;9.112;2023-02-08T07:42:09;15.07;;;9.30;;
9524;SDS011;15940;48.734;9.112;2023-02-08T07:44:40;16.23;;;9.13;;
9524;SDS011;15940;48.734;9.112;2023-02-08T07:47:10;14.93;;;8.83;;
9524;SDS011;15940;48.734;9.112;2023-02-08T07:49:39;14.03;;;9.17;;
9524;SDS011;15940;48.734;9.112;2023-02-08T07:52:06;16.37;;;8.60;;
9524;SDS011;15940;48.734;9.112;2023-02-08T07:54:33;13.23;;;9.07;;
9524;SDS011;15940;48.734;9.112;2023-02-08T07:57:00;13.73;;;8.87;;
9524;SDS011;15940;48.734;9.112;2023-02-08T07:59:30;14.60;;;8.97;;
9524;SDS011;15940;48.734;9.112;2023-02-08T08:01:58;13.70;;;8.87;;
9524;SDS011;15940;48.734;9.112;2023-02-08T08:04:27;16.67;;;9.90;;
9524;SDS011;15940;48.734;9.112;2023-02-08T08:06:55;13.93;;;9.50;;
9524;SDS011;15940;48.734;9.112;2023-02-08T08:09:22;16.17;;;9.93;;
9524;SDS011;15940;48.734;9.112;2023-02-08T08:11:49;15.47;;;9.80;;
9524;SDS011;15940;48.734;9.112;2023-02-08T08:14:16;14.23;;;9.60;;
9524;SDS011;15940;48.734;9.112;2023-02-08T08:16:44;15.27;;;9.13;;
9524;SDS011;15940;48.734;9.112;2023-02-08T08:19:11;17.93;;;9.90;;
9524;SDS011;15940;48.734;9.112;2023-02-08T08:21:38;14.40;;;8.63;;
9524;SDS011;15940;48.734;9.112;2023-02-08T08:24:09;16.27;;;9.53;;
9524;SDS011;15940;48.734;9.112;2023-02-08T08:26:36;14.97;;;9.53;;
9524;SDS011;15940;48.734;9.112;2023-02-08T08:29:03;14.83;;;9.80;;
9524;SDS011;15940;48.734;9.112;2023-02-08T08:31:31;15.07;;;8.90;;
9524;SDS011;15940;48.734;9.112;2023-02-08T08:33:58;13.93;;;8.50;;
9524;SDS011;15940;48.734;9.112;2023-02-08T08:36:26;15.37;;;9.03;;
9524;SDS011;15940;48.734;9.112;2023-02-08T08:38:53;16.47;;;9.77;;
9524;SDS011;15940;48.734;9.112;2023-02-08T08:41:21;16.50;;;9.90;;
9524;SDS011;15940;48.734;9.112;2023-02-08T08:43:51;13.40;;;9.27;;
9524;SDS011;15940;48.734;9.112;2023-02-08T08:46:18;13.37;;;9.53;;
9524;SDS011;15940;48.734;9.112;2023-02-08T08:48:47;14.53;;;8.67;;
9524;SDS011;15940;48.734;9.112;2023-02-08T08:51:18;17.73;;;9.07;;
9524;SDS011;15940;48.734;9.112;2023-02-08T08:53:45;15.33;;;9.43;;
9524;SDS011;15940;48.734;9.112;2023-02-08T08:56:12;15.27;;;9.03;;
9524;SDS011;15940;48.734;9.112;2023-02-08T08:58:40;13.83;;;8.63;;
9524;SDS011;15940;48.734;9.112;2023-02-08T09:01:09;14.20;;;9.20;;
9524;SDS011;15940;48.734;9.112;2023-02-08T09:03:38;13.83;;;8.57;;
9524;SDS011;15940;48.734;9.112;2023-02-08T09:06:06;14.13;;;9.00;;
9524;SDS011;15940;48.734;9.112;2023-02-08T09:08:36;13.63;;;9.20;;
9524;SDS011;15940;48.734;9.112;2023-02-08T09:11:04;11.13;;;7.77;;
9524;SDS011;15940;48.734;9.112;2023-02-08T09:13:32;13.23;;;8.70;;
9524;SDS011;15940;48.734;9.112;2023-02-08T09:16:04;14.77;;;8.90;;
9524;SDS011;15940;48.734;9.112;2023-02-08T09:18:35;13.63;;;8.73;;
9524;SDS011;15940;48.734;9.112;2023-02-08T09:21:04;14.03;;;8.70;;
9524;SDS011;15940;48.734;9.112;2023-02-08T09:23:32;16.20;;;9.30;;
9524;SDS011;15940;48.734;9.112;2023-02-08T09:26:02;13.60;;;8.50;;
9524;SDS011;15940;48.734;9.112;2023-02-08T09:28:31;15.87;;;8.37;;
9524;SDS011;15940;48.734;9.112;2023-02-08T09:30:59;13.30;;;8.27;;
9524;SDS011;15940;48.734;9.112;2023-02-08T09:33:33;14.83;;;9.97;;
9524;SDS011;15940;48.734;9.112;2023-02-08T09:36:00;15.40;;;8.53;;
9524;SDS011;15940;48.734;9.112;2023-02-08T09:38:29;11.97;;;7.97;;
9524;SDS011;15940;48.734;9.112;2023-02-08T09:40:58;13.37;;;7.70;;
9524;SDS011;15940;48.734;9.112;2023-02-08T09:43:43;12.97;;;8.10;;
9524;SDS011;15940;48.734;9.112;2023-02-08T09:46:37;11.60;;;7.50;;
9524;SDS011;15940;48.734;9.112;2023-02-08T09:49:08;11.23;;;7.03;;
9524;SDS011;15940;48.734;9.112;2023-02-08T09:51:49;11.10;;;7.27;;
9524;SDS011;15940;48.734;9.112;2023-02-08T09:54:23;17.97;;;7.60;;
9524;SDS011;15940;48.734;9.112;2023-02-08T09:56:59;12.80;;;7.77;;
9524;SDS011;15940;48.734;9.112;2023-02-08T09:59:31;11.83;;;7.83;;
9524;SDS011;15940;48.734;9.112;2023-02-08T10:02:03;14.07;;;8.43;;
9524;SDS011;15940;48.734;9.112;2023-02-08T10:04:50;12.87;;;7.47;;
9524;SDS011;15940;48.734;9.112;2023-02-08T10:07:24;14.90;;;9.20;;
9524;SDS011;15940;48.734;9.112;2023-02-08T10:09:52;9.47;;;7.67;;
9524;SDS011;15940;48.734;9.112;2023-02-08T10:12:24;14.97;;;8.67;;
9524;SDS011;15940;48.734;9.112;2023-02-08T10:15:04;15.93;;;10.23;;
9524;SDS011;15940;48.734;9.112;2023-02-08T10:18:13;13.73;;;8.97;;
9524;SDS011;15940;48.734;9.112;2023-02-08T10:21:17;12.20;;;8.90;;
9524;SDS011;15940;48.734;9.112;2023-02-08T10:27:48;14.43;;;9.60;;
9524;SDS011;15940;48.734;9.112;2023-02-08T10:30:39;12.07;;;9.30;;
9524;SDS011;15940;48.734;9.112;2023-02-08T10:33:20;13.80;;;9.23;;
9524;SDS011;15940;48.734;9.112;2023-02-08T10:35:58;12.37;;;9.30;;
9524;SDS011;15940;48.734;9.112;2023-02-08T10:38:27;13.80;;;9.30;;
9524;SDS011;15940;48.734;9.112;2023-02-08T10:40:58;15.03;;;10.03;;
9524;SDS011;15940;48.734;9.112;2023-02-08T10:43:34;13.57;;;9.50;;
9524;SDS011;15940;48.734;9.112;2023-02-08T10:46:09;13.57;;;9.57;;
9524;SDS011;15940;48.734;9.112;2023-02-08T10:48:48;15.67;;;9.63;;
9524;SDS011;15940;48.734;9.112;2023-02-08T10:51:28;13.20;;;9.40;;
9524;SDS011;15940;48.734;9.112;2023-02-08T10:53:56;15.17;;;9.77;;
9524;SDS011;15940;48.734;9.112;2023-02-08T10:59:16;13.33;;;9.20;;
9524;SDS011;15940;48.734;9.112;2023-02-08T11:01:47;12.50;;;9.17;;
9524;SDS011;15940;48.734;9.112;2023-02-08T11:04:17;13.00;;;9.43;;
9524;SDS011;15940;48.734;9.112;2023-02-08T11:06:47;14.43;;;10.00;;
9524;SDS011;15940;48.734;9.112;2023-02-08T11:09:21;13.83;;;9.30;;
9524;SDS011;15940;48.734;9.112;2023-02-08T11:11:54;16.23;;;10.20;;
9524;SDS011;15940;48.734;9.112;2023-02-08T11:14:26;13.07;;;9.33;;
9524;SDS011;15940;48.734;9.112;2023-02-08T11:17:10;14.10;;;9.33;;
9524;SDS011;15940;48.734;9.112;2023-02-08T11:20:18;16.03;;;8.80;;
9524;SDS011;15940;48.734;9.112;2023-02-08T11:22:57;13.60;;;9.37;;
9524;SDS011;15940;48.734;9.112;2023-02-08T11:25:34;16.33;;;9.33;;
9524;SDS011;15940;48.734;9.112;2023-02-08T11:28:04;12.80;;;8.87;;
9524;SDS011;15940;48.734;9.112;2023-02-08T11:30:57;15.87;;;8.57;;
9524;SDS011;15940;48.734;9.112;2023-02-08T11:33:29;17.40;;;9.05;;
9524;SDS011;15940;48.734;9.112;2023-02-08T11:36:01;14.53;;;9.10;;
9524;SDS011;15940;48.734;9.112;2023-02-08T11:38:34;16.83;;;9.70;;
9524;SDS011;15940;48.734;9.112;2023-02-08T11:41:12;13.67;;;8.90;;
9524;SDS011;15940;48.734;9.112;2023-02-08T11:43:43;12.47;;;8.60;;
9524;SDS011;15940;48.734;9.112;2023-02-08T11:46:35;16.83;;;9.03;;
9524;SDS011;15940;48.734;9.112;2023-02-08T11:49:06;12.70;;;8.50;;
9524;SDS011;15940;48.734;9.112;2023-02-08T11:51:47;12.73;;;7.97;;
9524;SDS011;15940;48.734;9.112;2023-02-08T11:57:11;12.57;;;8.37;;
9524;SDS011;15940;48.734;9.112;2023-02-08T11:59:43;9.57;;;6.80;;
9524;SDS011;15940;48.734;9.112;2023-02-08T12:02:18;12.70;;;6.70;;
9524;SDS011;15940;48.734;9.112;2023-02-08T12:05:03;9.47;;;5.97;;
9524;SDS011;15940;48.734;9.112;2023-02-08T12:07:44;7.10;;;5.07;;
9524;SDS011;15940;48.734;9.112;2023-02-08T12:13:47;8.33;;;5.17;;
9524;SDS011;15940;48.734;9.112;2023-02-08T12:16:30;9.03;;;5.80;;
9524;SDS011;15940;48.734;9.112;2023-02-08T12:19:42;7.70;;;5.30;;
9524;SDS011;15940;48.734;9.112;2023-02-08T12:23:02;10.10;;;5.10;;
9524;SDS011;15940;48.734;9.112;2023-02-08T12:26:02;10.10;;;5.60;;
9524;SDS011;15940;48.734;9.112;2023-02-08T12:28:44;7.40;;;5.23;;
9524;SDS011;15940;48.734;9.112;2023-02-08T12:31:44;7.57;;;5.30;;
9524;SDS011;15940;48.734;9.112;2023-02-08T12:34:35;6.57;;;4.90;;
9524;SDS011;15940;48.734;9.112;2023-02-08T12:37:22;7.80;;;5.17;;
9524;SDS011;15940;48.734;9.112;2023-02-08T12:40:27;8.43;;;5.80;;
9524;SDS011;15940;48.734;9.112;2023-02-08T12:43:18;7.83;;;5.30;;
9524;SDS011;15940;48.734;9.112;2023-02-08T12:46:26;9.17;;;6.00;;
9524;SDS011;15940;48.734;9.112;2023-02-08T12:49:25;10.60;;;5.40;;
9524;SDS011;15940;48.734;9.112;2023-02-08T12:52:20;7.73;;;5.30;;
9524;SDS011;15940;48.734;9.112;2023-02-08T12:55:01;6.97;;;5.50;;
9524;SDS011;15940;48.734;9.112;2023-02-08T12:57:58;9.87;;;6.07;;
9524;SDS011;15940;48.734;9.112;2023-02-08T13:04:18;8.23;;;5.90;;
9524;SDS011;15940;48.734;9.112;2023-02-08T13:10:11;9.07;;;5.70;;
9524;SDS011;15940;48.734;9.112;2023-02-08T13:12:45;9.27;;;5.70;;
9524;SDS011;15940;48.734;9.112;2023-02-08T13:15:19;6.87;;;5.50;;
9524;SDS011;15940;48.734;9.112;2023-02-08T13:17:53;7.97;;;5.60;;
9524;SDS011;15940;48.734;9.112;2023-02-08T13:20:37;11.83;;;5.90;;
9524;SDS011;15940;48.734;9.112;2023-02-08T13:23:24;7.73;;;5.50;;
9524;SDS011;15940;48.734;9.112;2023-02-08T13:25:56;8.93;;;5.63;;
9524;SDS011;15940;48.734;9.112;2023-02-08T13:28:33;10.37;;;5.90;;
9524;SDS011;15940;48.734;9.112;2023-02-08T13:31:04;6.70;;;5.17;;
9524;SDS011;15940;48.734;9.112;2023-02-08T13:33:41;11.50;;;6.13;;
9524;SDS011;15940;48.734;9.112;2023-02-08T13:36:18;9.10;;;6.17;;
9524;SDS011;15940;48.734;9.112;2023-02-08T13:38:53;8.87;;;6.00;;
9524;SDS011;15940;48.734;9.112;2023-02-08T13:41:23;7.33;;;5.60;;
9524;SDS011;15940;48.734;9.112;2023-02-08T13:43:53;9.13;;;6.07;;
9524;SDS011;15940;48.734;9.112;2023-02-08T13:46:26;7.70;;;5.80;;
9524;SDS011;15940;48.734;9.112;2023-02-08T13:49:03;11.03;;;6.20;;
9524;SDS011;15940;48.734;9.112;2023-02-08T13:54:27;10.93;;;6.17;;
9524;SDS011;15940;48.734;9.112;2023-02-08T13:56:54;9.97;;;5.83;;
9524;SDS011;15940;48.734;9.112;2023-02-08T13:59:29;8.47;;;6.27;;
9524;SDS011;15940;48.734;9.112;2023-02-08T14:02:21;9.03;;;6.27;;
9524;SDS011;15940;48.734;9.112;2023-02-08T14:08:15;6.50;;;5.30;;
9524;SDS011;15940;48.734;9.112;2023-02-08T14:11:10;10.33;;;6.27;;
9524;SDS011;15940;48.734;9.112;2023-02-08T14:13:45;8.20;;;5.93;;
9524;SDS011;15940;48.734;9.112;2023-02-08T14:16:26;9.10;;;5.57;;
9524;SDS011;15940;48.734;9.112;2023-02-08T14:18:59;8.60;;;6.10;;
9524;SDS011;15940;48.734;9.112;2023-02-08T14:21:31;11.23;;;6.70;;
9524;SDS011;15940;48.734;9.112;2023-02-08T14:24:06;8.60;;;6.33;;
9524;SDS011;15940;48.734;9.112;2023-02-08T14:26:46;8.87;;;6.53;;
9524;SDS011;15940;48.734;9.112;2023-02-08T14:29:20;9.90;;;6.60;;
9524;SDS011;15940;48.734;9.112;2023-02-08T14:31:52;10.30;;;6.33;;
9524;SDS011;15940;48.734;9.112;2023-02-08T14:34:26;10.23;;;7.20;;
9524;SDS011;15940;48.734;9.112;2023-02-08T14:37:24;11.10;;;7.00;;
9524;SDS011;15940;48.734;9.112;2023-02-08T14:43:32;9.93;;;7.20;;
9524;SDS011;15940;48.734;9.112;2023-02-08T14:49:12;10.73;;;6.67;;
9524;SDS011;15940;48.734;9.112;2023-02-08T14:51:48;9.50;;;7.33;;
9524;SDS011;15940;48.734;9.112;2023-02-08T14:57:54;11.37;;;7.10;;
9524;SDS011;15940;48.734;9.112;2023-02-08T15:00:27;12.47;;;7.93;;
9524;SDS011;15940;48.734;9.112;2023-02-08T15:03:06;9.10;;;6.47;;
9524;SDS011;15940;48.734;9.112;2023-02-08T15:05:45;13.07;;;7.87;;
9524;SDS011;15940;48.734;9.112;2023-02-08T15:08:51;10.57;;;7.47;;
9524;SDS011;15940;48.734;9.112;2023-02-08T15:11:21;11.87;;;6.70;;
9524;SDS011;15940;48.734;9.112;2023-02-08T15:13:53;9.87;;;6.97;;
9524;SDS011;15940;48.734;9.112;2023-02-08T15:16:25;11.97;;;7.90;;
9524;SDS011;15940;48.734;9.112;2023-02-08T15:18:58;13.70;;;7.80;;
9524;SDS011;15940;48.734;9.112;2023-02-08T15:21:27;12.20;;;7.80;;
9524;SDS011;15940;48.734;9.112;2023-02-08T15:24:03;16.73;;;8.43;;
9524;SDS011;15940;48.734;9.112;2023-02-08T15:26:44;13.03;;;8.17;;
9524;SDS011;15940;48.734;9.112;2023-02-08T15:29:16;16.17;;;8.20;;
9524;SDS011;15940;48.734;9.112;2023-02-08T15:31:53;12.13;;;8.10;;
9524;SDS011;15940;48.734;9.112;2023-02-08T15:34:22;13.23;;;8.40;;
9524;SDS011;15940;48.734;9.112;2023-02-08T15:36:51;14.30;;;8.33;;
9524;SDS011;15940;48.734;9.112;2023-02-08T15:39:31;13.47;;;7.83;;
9524;SDS011;15940;48.734;9.112;2023-02-08T15:45:44;13.83;;;8.30;;
9524;SDS011;15940;48.734;9.112;2023-02-08T15:48:22;13.20;;;8.23;;
9524;SDS011;15940;48.734;9.112;2023-02-08T15:50:54;12.97;;;8.67;;
9524;SDS011;15940;48.734;9.112;2023-02-08T15:53:22;13.27;;;8.87;;
9524;SDS011;15940;48.734;9.112;2023-02-08T15:55:53;12.43;;;8.47;;
9524;SDS011;15940;48.734;9.112;2023-02-08T15:58:26;13.70;;;8.43;;
9524;SDS011;15940;48.734;9.112;2023-02-08T16:01:01;12.40;;;8.27;;
9524;SDS011;15940;48.734;9.112;2023-02-08T16:03:33;14.83;;;9.40;;
9524;SDS011;15940;48.734;9.112;2023-02-08T16:06:06;13.80;;;8.67;;
9524;SDS011;15940;48.734;9.112;2023-02-08T16:08:35;18.03;;;10.43;;
9524;SDS011;15940;48.734;9.112;2023-02-08T16:11:10;15.03;;;9.33;;
9524;SDS011;15940;48.734;9.112;2023-02-08T16:13:45;11.53;;;8.47;;
9524;SDS011;15940;48.734;9.112;2023-02-08T16:16:17;14.87;;;8.57;;